Time;durP1;ratioP1;P1;durP2;ratioP2;P2;SDS_P1;SDS_P2;PMS_P1;PMS_P2;Temp;Humidity;BMP_temperature;BMP_pressure;BME280_temperature;BME280_humidity;BME280_pressure;Samples;Min_cycle;Max_cycle;Signal;HPM_P1;HPM_P2
2023/03/16 00:01:06;;;;;;;;;3.00;3.00;;;;;;;;5084703;27;61687;-80
2023/03/16 00:03:32;;;;;;;;;5.00;4.00;;;;;;;;5065620;27;62424;-80
2023/03/16 00:05:57;;;;;;;;;8.50;2.75;;;;;;;;5065745;28;61918;-80
2023/03/16 00:08:23;;;;;;;;;8.00;4.00;;;;;;;;5084280;27;62397;-80
2023/03/16 00:10:48;;;;;;;;;9.00;3.00;;;;;;;;5066437;27;61910;-80
2023/03/16 00:13:14;;;;;;;;;6.25;2.75;;;;;;;;5066207;28;62005;-80
2023/03/16 00:15:39;;;;;;;;;3.50;3.25;;;;;;;;5084946;27;61805;-80
2023/03/16 00:18:05;;;;;;;;;3.50;1.25;;;;;;;;5067089;28;63645;-79
2023/03/16 00:20:30;;;;;;;;;4.00;4.00;;;;;;;;5084893;28;61889;-80
2023/03/16 00:22:55;;;;;;;;;4.50;3.00;;;;;;;;5066409;28;61792;-80
2023/03/16 00:25:20;;;;;;;;;3.00;2.00;;;;;;;;5066571;28;61765;-80
2023/03/16 00:27:46;;;;;;;;;1.00;1.00;;;;;;;;5065351;28;65131;-80
2023/03/16 00:30:11;;;;;;;;;4.00;4.00;;;;;;;;5083546;27;61846;-80
2023/03/16 00:32:37;;;;;;;;;5.00;3.00;;;;;;;;5066088;27;61791;-80
2023/03/16 00:35:03;;;;;;;;;2.50;2.25;;;;;;;;5066242;27;62066;-80
2023/03/16 00:37:29;;;;;;;;;2.25;2.00;;;;;;;;5083741;28;61824;-80
2023/03/16 00:39:55;;;;;;;;;2.00;2.00;;;;;;;;5066313;28;62402;-80
2023/03/16 00:42:22;;;;;;;;;2.00;2.00;;;;;;;;5065969;28;61903;-80
2023/03/16 00:44:48;;;;;;;;;2.00;2.00;;;;;;;;5084221;27;61719;-80
2023/03/16 00:47:13;;;;;;;;;6.25;4.00;;;;;;;;5065266;28;63611;-81
2023/03/16 00:49:41;;;;;;;;;4.75;3.00;;;;;;;;5066219;28;61918;-80
2023/03/16 00:52:07;;;;;;;;;3.00;3.00;;;;;;;;5065674;27;61948;-80
2023/03/16 00:54:32;;;;;;;;;2.00;2.00;;;;;;;;5065924;28;61976;-80
2023/03/16 00:56:58;;;;;;;;;4.75;2.00;;;;;;;;5065355;28;65055;-80
2023/03/16 00:59:25;;;;;;;;;4.00;2.00;;;;;;;;5065267;28;61778;-80
2023/03/16 01:01:51;;;;;;;;;7.00;4.00;;;;;;;;5066205;28;61884;-80
2023/03/16 01:04:16;;;;;;;;;3.00;3.00;;;;;;;;5065687;28;61893;-80
2023/03/16 01:06:41;;;;;;;;;2.75;2.75;;;;;;;;5065154;28;63450;-80
2023/03/16 01:09:08;;;;;;;;;3.25;3.00;;;;;;;;5084043;28;61846;-80
2023/03/16 01:11:33;;;;;;;;;7.25;3.25;;;;;;;;5065605;28;62095;-80
2023/03/16 01:13:59;;;;;;;;;4.50;3.00;;;;;;;;5065241;28;61793;-80
2023/03/16 01:16:24;;;;;;;;;4.00;4.00;;;;;;;;5081632;27;63939;-80
2023/03/16 01:18:51;;;;;;;;;6.25;5.75;;;;;;;;5065533;28;61797;-80
2023/03/16 01:21:17;;;;;;;;;3.50;3.00;;;;;;;;5065465;28;61891;-80
2023/03/16 01:23:43;;;;;;;;;4.00;4.00;;;;;;;;5065937;28;61872;-80
2023/03/16 01:26:08;;;;;;;;;4.75;4.25;;;;;;;;5083051;28;61869;-79
2023/03/16 01:28:33;;;;;;;;;3.50;3.00;;;;;;;;5083256;27;61818;-80
2023/03/16 01:31:01;;;;;;;;;3.00;3.00;;;;;;;;5065231;27;61997;-80
2023/03/16 01:33:27;;;;;;;;;3.00;3.00;;;;;;;;5083236;27;62331;-79
2023/03/16 01:35:53;;;;;;;;;3.25;3.00;;;;;;;;5064452;28;64668;-80
2023/03/16 01:38:19;;;;;;;;;2.00;2.00;;;;;;;;5065186;28;61938;-80
2023/03/16 01:40:44;;;;;;;;;4.25;4.00;;;;;;;;5065299;28;61782;-80
2023/03/16 01:43:10;;;;;;;;;6.75;4.00;;;;;;;;5083657;28;61844;-80
2023/03/16 01:45:54;;;;;;;;;3.00;2.25;;;;;;;;5064059;28;63585;-80
2023/03/16 01:48:20;;;;;;;;;6.00;4.00;;;;;;;;5081948;27;62072;-80
2023/03/16 01:50:46;;;;;;;;;10.50;6.50;;;;;;;;5065154;28;62248;-80
2023/03/16 01:53:12;;;;;;;;;7.50;4.50;;;;;;;;5064970;28;61767;-80
2023/03/16 01:55:41;;;;;;;;;6.00;3.00;;;;;;;;5082563;28;61857;-80
2023/03/16 01:58:06;;;;;;;;;8.75;2.75;;;;;;;;5082915;28;61798;-80
2023/03/16 02:00:32;;;;;;;;;2.00;2.00;;;;;;;;5082590;27;62018;-80
2023/03/16 02:03:04;;;;;;;;;3.00;3.00;;;;;;;;5064974;28;61932;-79
2023/03/16 02:05:38;;;;;;;;;5.75;4.50;;;;;;;;5082227;27;62580;-80
2023/03/16 02:08:04;;;;;;;;;4.50;3.50;;;;;;;;5083053;28;61977;-80
2023/03/16 02:10:30;;;;;;;;;2.75;2.75;;;;;;;;5083074;28;61992;-80
2023/03/16 02:12:57;;;;;;;;;6.00;3.00;;;;;;;;5064809;28;62092;-80
2023/03/16 02:15:22;;;;;;;;;4.50;4.50;;;;;;;;5081819;27;62235;-80
2023/03/16 02:17:48;;;;;;;;;3.00;3.00;;;;;;;;5082844;28;61784;-79
2023/03/16 02:20:21;;;;;;;;;4.25;4.25;;;;;;;;5064818;28;61877;-80
2023/03/16 02:22:48;;;;;;;;;3.75;3.25;;;;;;;;5083141;28;61994;-80
2023/03/16 02:25:15;;;;;;;;;5.50;5.25;;;;;;;;5064154;28;64008;-80
2023/03/16 02:27:47;;;;;;;;;4.75;3.50;;;;;;;;5064080;28;61913;-80
2023/03/16 02:30:13;;;;;;;;;5.50;3.75;;;;;;;;5081584;28;62166;-80
2023/03/16 02:32:39;;;;;;;;;3.00;3.00;;;;;;;;5064477;28;61978;-80
2023/03/16 02:35:05;;;;;;;;;4.25;3.75;;;;;;;;5063966;28;64898;-80
2023/03/16 02:37:32;;;;;;;;;8.50;4.75;;;;;;;;5064070;28;62119;-80
2023/03/16 02:39:57;;;;;;;;;6.75;4.25;;;;;;;;5082700;27;61756;-80
2023/03/16 02:42:25;;;;;;;;;5.50;3.25;;;;;;;;5082427;28;61875;-79
2023/03/16 02:44:57;;;;;;;;;5.50;4.00;;;;;;;;5081525;27;62098;-80
2023/03/16 02:47:50;;;;;;;;;6.00;5.25;;;;;;;;5064405;28;61840;-80
2023/03/16 02:50:16;;;;;;;;;4.00;4.00;;;;;;;;5061466;28;62156;-80
2023/03/16 02:52:41;;;;;;;;;8.75;4.50;;;;;;;;5082115;27;62112;-80
2023/03/16 02:55:07;;;;;;;;;6.25;3.75;;;;;;;;5063453;28;65031;-79
2023/03/16 02:57:32;;;;;;;;;4.50;3.25;;;;;;;;5063948;28;61949;-80
2023/03/16 02:59:58;;;;;;;;;6.50;5.50;;;;;;;;5081935;28;61682;-80
2023/03/16 03:02:23;;;;;;;;;6.75;4.00;;;;;;;;5082728;28;61719;-79
2023/03/16 03:04:53;;;;;;;;;4.75;4.75;;;;;;;;5063317;28;65225;-80
2023/03/16 03:07:19;;;;;;;;;6.00;4.00;;;;;;;;5064205;28;61797;-79
2023/03/16 03:09:44;;;;;;;;;7.00;3.25;;;;;;;;5082212;27;61919;-79
2023/03/16 03:12:10;;;;;;;;;7.25;6.00;;;;;;;;5082382;27;61843;-79
2023/03/16 03:14:36;;;;;;;;;7.50;4.00;;;;;;;;5081493;27;61826;-80
2023/03/16 03:17:03;;;;;;;;;4.75;3.25;;;;;;;;5063733;28;61859;-80
2023/03/16 03:19:28;;;;;;;;;6.00;3.75;;;;;;;;5082388;27;61856;-80
2023/03/16 03:21:55;;;;;;;;;3.00;3.00;;;;;;;;5064079;28;62115;-79
2023/03/16 03:24:21;;;;;;;;;5.50;4.00;;;;;;;;5081487;27;61866;-80
2023/03/16 03:26:47;;;;;;;;;3.00;3.00;;;;;;;;5063432;28;62470;-79
2023/03/16 03:29:12;;;;;;;;;4.00;3.00;;;;;;;;5081879;27;62010;-79
2023/03/16 03:31:37;;;;;;;;;6.50;5.00;;;;;;;;5082168;28;62069;-80
2023/03/16 03:34:05;;;;;;;;;5.00;2.50;;;;;;;;5081197;28;62814;-80
2023/03/16 03:36:31;;;;;;;;;4.00;3.00;;;;;;;;5063803;28;62196;-80
2023/03/16 03:38:56;;;;;;;;;5.75;3.75;;;;;;;;5063392;28;61836;-79
2023/03/16 03:41:21;;;;;;;;;4.00;3.00;;;;;;;;5083091;28;61766;-79
2023/03/16 03:43:47;;;;;;;;;6.00;4.00;;;;;;;;5084234;27;62849;-80
2023/03/16 03:46:12;;;;;;;;;4.25;2.50;;;;;;;;5085219;27;62137;-79
2023/03/16 03:48:37;;;;;;;;;2.75;2.00;;;;;;;;5085479;27;61750;-80
2023/03/16 03:51:04;;;;;;;;;3.50;3.00;;;;;;;;5085389;28;61894;-80
2023/03/16 03:53:29;;;;;;;;;2.25;2.25;;;;;;;;5065631;28;63778;-80
2023/03/16 03:55:54;;;;;;;;;2.75;2.00;;;;;;;;5066821;28;62348;-80
2023/03/16 03:58:20;;;;;;;;;7.00;5.75;;;;;;;;5066661;28;62065;-80
2023/03/16 04:00:45;;;;;;;;;3.75;3.75;;;;;;;;5066434;27;61734;-80
2023/03/16 04:03:11;;;;;;;;;5.50;3.75;;;;;;;;5066197;28;64075;-79
2023/03/16 04:05:36;;;;;;;;;7.00;3.75;;;;;;;;5066935;28;61784;-79
2023/03/16 04:08:01;;;;;;;;;3.75;3.00;;;;;;;;5066158;28;61805;-79
2023/03/16 04:10:28;;;;;;;;;4.50;3.00;;;;;;;;5067049;28;61806;-79
2023/03/16 04:12:54;;;;;;;;;5.50;4.00;;;;;;;;5065818;27;63866;-80
2023/03/16 04:15:21;;;;;;;;;2.50;2.50;;;;;;;;5084635;27;61957;-79
2023/03/16 04:17:46;;;;;;;;;2.50;2.00;;;;;;;;5084825;27;62268;-80
2023/03/16 04:20:14;;;;;;;;;4.50;3.75;;;;;;;;5066858;27;62373;-80
2023/03/16 04:22:42;;;;;;;;;2.00;2.00;;;;;;;;5065831;28;64512;-79
2023/03/16 04:25:08;;;;;;;;;3.50;3.50;;;;;;;;5066441;28;62052;-80
2023/03/16 04:27:35;;;;;;;;;5.50;3.00;;;;;;;;5066286;28;62051;-80
2023/03/16 04:30:00;;;;;;;;;2.75;2.75;;;;;;;;5084187;28;61984;-80
2023/03/16 04:32:26;;;;;;;;;3.50;2.75;;;;;;;;5084131;27;62015;-80
2023/03/16 04:34:54;;;;;;;;;6.00;2.25;;;;;;;;5066007;28;61891;-79
2023/03/16 04:37:21;;;;;;;;;3.00;3.00;;;;;;;;5066064;28;61950;-79
2023/03/16 04:39:46;;;;;;;;;2.75;2.00;;;;;;;;5084908;28;62028;-80
2023/03/16 04:42:11;;;;;;;;;3.75;3.00;;;;;;;;5065533;28;63680;-79
2023/03/16 04:44:43;;;;;;;;;3.00;3.00;;;;;;;;5084132;28;62096;-79
2023/03/16 04:47:08;;;;;;;;;7.00;2.75;;;;;;;;5084353;27;62036;-80
2023/03/16 04:49:34;;;;;;;;;4.00;3.00;;;;;;;;5066320;28;62107;-79
2023/03/16 04:51:59;;;;;;;;;5.75;2.00;;;;;;;;5064240;28;63960;-80
2023/03/16 04:54:25;;;;;;;;;3.00;2.00;;;;;;;;5066085;28;61735;-79
2023/03/16 04:56:51;;;;;;;;;2.00;2.00;;;;;;;;5066010;28;61858;-79
2023/03/16 04:59:16;;;;;;;;;3.50;3.50;;;;;;;;5083961;28;62075;-80
2023/03/16 05:01:42;;;;;;;;;1.50;1.50;;;;;;;;5083733;28;62778;-79
2023/03/16 05:04:07;;;;;;;;;2.75;2.75;;;;;;;;5065463;28;62026;-79
2023/03/16 05:06:33;;;;;;;;;2.00;2.00;;;;;;;;5065667;28;62169;-79
2023/03/16 05:08:59;;;;;;;;;2.00;2.00;;;;;;;;5084204;27;61901;-79
2023/03/16 05:11:24;;;;;;;;;2.50;2.50;;;;;;;;5065240;28;63840;-80
2023/03/16 05:13:50;;;;;;;;;3.00;2.00;;;;;;;;5083466;27;62310;-79
2023/03/16 05:16:15;;;;;;;;;4.50;3.00;;;;;;;;5065433;28;62179;-79
2023/03/16 05:18:40;;;;;;;;;2.75;1.50;;;;;;;;5065692;28;62016;-80
2023/03/16 05:21:05;;;;;;;;;2.25;2.25;;;;;;;;5064469;28;65146;-80
2023/03/16 05:23:31;;;;;;;;;2.25;1.00;;;;;;;;5065874;27;62013;-80
2023/03/16 05:25:59;;;;;;;;;2.25;1.75;;;;;;;;5065603;28;61944;-80
2023/03/16 05:28:25;;;;;;;;;4.00;2.25;;;;;;;;5065320;28;62030;-79
2023/03/16 05:30:50;;;;;;;;;2.00;2.00;;;;;;;;5082645;28;61928;-80
2023/03/16 05:33:15;;;;;;;;;1.50;1.50;;;;;;;;5083281;28;61971;-80
2023/03/16 05:35:41;;;;;;;;;3.00;1.00;;;;;;;;5083548;28;61881;-80
2023/03/16 05:38:08;;;;;;;;;2.00;2.00;;;;;;;;5083670;27;62013;-79
2023/03/16 05:40:34;;;;;;;;;2.00;2.00;;;;;;;;5083255;27;62050;-79
2023/03/16 05:42:59;;;;;;;;;1.75;1.25;;;;;;;;5083478;28;62021;-79
2023/03/16 05:45:25;;;;;;;;;1.50;1.50;;;;;;;;5083090;27;61911;-80
2023/03/16 05:47:50;;;;;;;;;4.00;1.75;;;;;;;;5065167;28;61916;-80
2023/03/16 05:50:18;;;;;;;;;1.75;1.75;;;;;;;;5064129;28;63715;-80
2023/03/16 05:52:48;;;;;;;;;2.00;2.00;;;;;;;;5083026;28;62077;-79
2023/03/16 05:55:14;;;;;;;;;2.50;1.00;;;;;;;;5083336;28;61991;-79
2023/03/16 05:57:40;;;;;;;;;1.75;1.75;;;;;;;;5064958;28;61842;-79
2023/03/16 06:00:15;;;;;;;;;2.00;2.00;;;;;;;;5081992;28;62701;-80
2023/03/16 06:02:41;;;;;;;;;7.50;2.00;;;;;;;;5064920;28;61973;-79
2023/03/16 06:05:07;;;;;;;;;2.00;2.00;;;;;;;;5063828;28;61878;-79
2023/03/16 06:07:33;;;;;;;;;3.00;2.00;;;;;;;;5082823;27;61834;-79
2023/03/16 06:09:58;;;;;;;;;2.00;1.00;;;;;;;;5065474;28;63968;-81
2023/03/16 06:12:23;;;;;;;;;3.00;1.50;;;;;;;;5065787;28;62135;-81
2023/03/16 06:14:48;;;;;;;;;1.75;1.75;;;;;;;;5066219;28;61930;-80
2023/03/16 06:17:14;;;;;;;;;1.25;1.00;;;;;;;;5064750;28;61898;-80
2023/03/16 06:19:39;;;;;;;;;1.00;1.00;;;;;;;;5064346;28;63529;-80
2023/03/16 06:22:04;;;;;;;;;5.00;1.00;;;;;;;;5084348;27;61946;-81
2023/03/16 06:24:29;;;;;;;;;2.00;2.00;;;;;;;;5067609;28;61725;-81
2023/03/16 06:26:55;;;;;;;;;3.00;1.75;;;;;;;;5066497;28;62312;-80
2023/03/16 06:29:20;;;;;;;;;1.25;1.00;;;;;;;;5083417;28;62180;-81
2023/03/16 06:31:46;;;;;;;;;1.50;1.00;;;;;;;;5069122;28;61660;-81
2023/03/16 06:34:12;;;;;;;;;0.75;0.75;;;;;;;;5088197;28;62133;-81
2023/03/16 06:36:38;;;;;;;;;1.00;1.00;;;;;;;;5070227;28;61774;-81
2023/03/16 06:39:04;;;;;;;;;2.00;1.00;;;;;;;;5069779;27;63767;-80
2023/03/16 06:41:29;;;;;;;;;1.00;1.00;;;;;;;;5081327;28;62275;-79
2023/03/16 06:43:56;;;;;;;;;1.00;1.00;;;;;;;;5052576;28;61890;-77
2023/03/16 06:46:21;;;;;;;;;2.00;1.00;;;;;;;;5053662;28;62024;-78
2023/03/16 06:48:46;;;;;;;;;1.00;1.00;;;;;;;;5051404;28;63959;-77
2023/03/16 06:51:12;;;;;;;;;0.00;0.00;;;;;;;;5058181;28;61903;-77
2023/03/16 06:53:37;;;;;;;;;2.75;1.75;;;;;;;;5069760;28;61814;-79
2023/03/16 06:56:02;;;;;;;;;2.25;0.00;;;;;;;;5068684;28;61846;-79
2023/03/16 06:58:27;;;;;;;;;1.75;0.00;;;;;;;;5052216;28;63989;-79
2023/03/16 07:00:53;;;;;;;;;3.75;1.00;;;;;;;;5053789;28;62403;-79
2023/03/16 07:03:18;;;;;;;;;2.00;2.00;;;;;;;;5076843;28;61959;-79
2023/03/16 07:05:43;;;;;;;;;2.00;2.00;;;;;;;;5084568;28;61716;-79
2023/03/16 07:08:09;;;;;;;;;1.00;1.00;;;;;;;;5082742;28;61906;-79
2023/03/16 07:10:34;;;;;;;;;1.00;1.00;;;;;;;;5069949;28;62312;-82
2023/03/16 07:12:59;;;;;;;;;2.75;1.00;;;;;;;;5070902;28;62095;-81
2023/03/16 07:15:25;;;;;;;;;5.75;2.00;;;;;;;;5070322;28;61772;-81
2023/03/16 07:17:51;;;;;;;;;1.00;1.00;;;;;;;;5094039;27;61748;-81
2023/03/16 07:20:17;;;;;;;;;1.25;1.25;;;;;;;;5076400;28;62123;-81
2023/03/16 07:22:42;;;;;;;;;2.00;1.00;;;;;;;;5095101;28;61252;-81
2023/03/16 07:25:08;;;;;;;;;1.00;1.00;;;;;;;;5095037;28;61407;-82
2023/03/16 07:27:33;;;;;;;;;2.75;1.00;;;;;;;;5075357;27;63976;-81
2023/03/16 07:30:03;;;;;;;;;1.00;1.00;;;;;;;;5074129;28;61794;-83
2023/03/16 07:32:29;;;;;;;;;1.00;1.00;;;;;;;;5064394;28;61846;-81
2023/03/16 07:34:54;;;;;;;;;1.00;1.00;;;;;;;;5081550;27;61997;-78
2023/03/16 07:37:20;;;;;;;;;1.75;1.75;;;;;;;;5084311;28;63060;-78
2023/03/16 07:39:45;;;;;;;;;2.00;2.00;;;;;;;;5066971;28;62139;-79
2023/03/16 07:42:10;;;;;;;;;1.00;1.00;;;;;;;;5066401;27;62027;-79
2023/03/16 07:44:36;;;;;;;;;1.50;1.00;;;;;;;;5084917;27;61820;-78
2023/03/16 07:47:01;;;;;;;;;1.75;0.50;;;;;;;;5065562;27;64153;-79
2023/03/16 07:49:26;;;;;;;;;1.00;1.00;;;;;;;;5084840;27;62375;-80
2023/03/16 07:51:52;;;;;;;;;1.00;1.00;;;;;;;;5066213;28;62615;-79
2023/03/16 07:54:17;;;;;;;;;4.25;2.00;;;;;;;;5084557;27;61832;-81
2023/03/16 07:56:42;;;;;;;;;1.50;1.00;;;;;;;;5083798;28;62753;-81
2023/03/16 07:59:08;;;;;;;;;1.00;1.00;;;;;;;;5082823;28;62155;-81
2023/03/16 08:01:33;;;;;;;;;0.00;0.00;;;;;;;;5084909;28;61832;-82
2023/03/16 08:03:59;;;;;;;;;1.00;1.00;;;;;;;;5068254;27;62151;-81
2023/03/16 08:06:24;;;;;;;;;1.00;1.00;;;;;;;;5047854;28;64004;-80
2023/03/16 08:08:50;;;;;;;;;0.00;0.00;;;;;;;;5046308;28;61771;-78
2023/03/16 08:11:22;;;;;;;;;1.00;1.00;;;;;;;;5064970;28;61874;-83
2023/03/16 08:13:49;;;;;;;;;1.00;1.00;;;;;;;;5045044;28;61835;-80
2023/03/16 08:16:15;;;;;;;;;2.00;1.00;;;;;;;;5062647;28;61591;-81
2023/03/16 08:18:41;;;;;;;;;1.00;1.00;;;;;;;;5045983;28;61691;-80
2023/03/16 08:21:07;;;;;;;;;1.00;1.00;;;;;;;;5045966;28;61870;-79
2023/03/16 08:23:32;;;;;;;;;1.75;1.75;;;;;;;;5046294;28;62075;-81
2023/03/16 08:25:58;;;;;;;;;1.00;1.00;;;;;;;;5066408;28;63537;-80
2023/03/16 08:28:24;;;;;;;;;1.75;1.00;;;;;;;;5065486;28;61925;-81
2023/03/16 08:30:51;;;;;;;;;2.50;2.50;;;;;;;;5064648;28;62602;-81
2023/03/16 08:33:16;;;;;;;;;1.75;1.75;;;;;;;;5064504;28;62140;-81
2023/03/16 08:35:45;;;;;;;;;3.00;1.00;;;;;;;;5064503;27;63733;-82
2023/03/16 08:38:12;;;;;;;;;1.00;1.00;;;;;;;;5065218;28;61271;-81
2023/03/16 08:40:40;;;;;;;;;3.25;2.00;;;;;;;;5065844;28;61997;-81
2023/03/16 08:43:06;;;;;;;;;2.00;2.00;;;;;;;;5065320;28;62137;-82
2023/03/16 08:45:32;;;;;;;;;1.25;1.25;;;;;;;;5082933;27;61962;-81
2023/03/16 08:47:58;;;;;;;;;0.25;0.25;;;;;;;;5081733;27;61846;-81
2023/03/16 08:50:23;;;;;;;;;2.00;2.00;;;;;;;;5056059;27;62049;-81
2023/03/16 08:52:49;;;;;;;;;3.75;3.75;;;;;;;;5075018;28;61868;-82
2023/03/16 08:55:15;;;;;;;;;2.75;2.75;;;;;;;;5054560;28;63503;-82
2023/03/16 08:57:40;;;;;;;;;3.00;1.75;;;;;;;;5055220;28;61770;-82
2023/03/16 09:00:13;;;;;;;;;1.25;1.00;;;;;;;;5050080;28;62033;-82
2023/03/16 09:02:39;;;;;;;;;2.00;2.00;;;;;;;;5056171;28;62234;-81
2023/03/16 09:05:07;;;;;;;;;2.75;1.00;;;;;;;;5054790;28;63982;-81
2023/03/16 09:07:34;;;;;;;;;1.00;1.00;;;;;;;;5053622;28;61949;-82
2023/03/16 09:09:59;;;;;;;;;1.00;1.00;;;;;;;;5055160;28;61961;-81
2023/03/16 09:12:25;;;;;;;;;0.50;0.50;;;;;;;;5055321;28;61888;-81
2023/03/16 09:14:50;;;;;;;;;1.75;1.00;;;;;;;;5052606;28;63793;-81
2023/03/16 09:17:15;;;;;;;;;1.00;1.00;;;;;;;;5055347;28;62037;-82
2023/03/16 09:19:41;;;;;;;;;1.00;1.00;;;;;;;;5054917;28;61838;-81
2023/03/16 09:22:06;;;;;;;;;2.00;1.00;;;;;;;;5053784;28;62113;-82
2023/03/16 09:24:32;;;;;;;;;3.25;1.00;;;;;;;;5055050;28;63998;-82
2023/03/16 09:26:57;;;;;;;;;3.00;1.00;;;;;;;;5071944;28;61720;-82
2023/03/16 09:29:23;;;;;;;;;1.00;1.00;;;;;;;;5053628;28;61938;-82
2023/03/16 09:31:49;;;;;;;;;2.00;1.75;;;;;;;;5074086;28;62305;-82
2023/03/16 09:34:14;;;;;;;;;0.50;0.00;;;;;;;;5052285;28;64464;-81
2023/03/16 09:36:39;;;;;;;;;1.00;1.00;;;;;;;;5054759;28;61957;-81
2023/03/16 09:39:05;;;;;;;;;1.00;1.00;;;;;;;;5054691;28;61993;-81
2023/03/16 09:41:30;;;;;;;;;1.00;1.00;;;;;;;;5055640;28;61862;-81
2023/03/16 09:44:09;;;;;;;;;1.00;1.00;;;;;;;;5052790;28;64682;-81
2023/03/16 09:46:37;;;;;;;;;0.75;0.75;;;;;;;;5055457;28;61967;-81
2023/03/16 09:49:03;;;;;;;;;1.00;0.75;;;;;;;;5055571;28;61810;-81
2023/03/16 09:51:52;;;;;;;;;3.00;2.00;;;;;;;;5055527;28;62186;-82
2023/03/16 09:54:27;;;;;;;;;2.00;2.00;;;;;;;;5055954;27;64978;-81
2023/03/16 09:56:53;;;;;;;;;3.00;1.25;;;;;;;;5052902;28;61787;-81
2023/03/16 09:59:21;;;;;;;;;1.25;1.25;;;;;;;;5075796;27;61705;-81
2023/03/16 10:01:47;;;;;;;;;2.75;1.00;;;;;;;;5083012;28;61742;-81
2023/03/16 10:04:31;;;;;;;;;7.50;1.75;;;;;;;;5069709;28;63530;-81
2023/03/16 10:07:11;;;;;;;;;1.75;1.00;;;;;;;;5064574;28;62005;-81
2023/03/16 10:09:41;;;;;;;;;1.75;1.75;;;;;;;;5061756;28;62164;-81
2023/03/16 10:12:08;;;;;;;;;3.00;2.00;;;;;;;;5064219;28;61953;-81
2023/03/16 10:14:44;;;;;;;;;1.25;1.25;;;;;;;;5059086;28;64776;-81
2023/03/16 10:17:32;;;;;;;;;0.50;0.50;;;;;;;;5057348;28;61982;-81
2023/03/16 10:20:00;;;;;;;;;1.00;1.00;;;;;;;;4969893;28;62040;-81
2023/03/16 10:22:29;;;;;;;;;4.25;2.00;;;;;;;;4964077;28;61707;-81
2023/03/16 10:25:00;;;;;;;;;1.00;1.00;;;;;;;;4979463;28;62062;-81
2023/03/16 10:27:33;;;;;;;;;1.50;1.00;;;;;;;;4979880;28;62203;-81
2023/03/16 10:30:00;;;;;;;;;2.75;1.00;;;;;;;;4963206;28;62299;-81
2023/03/16 10:32:30;;;;;;;;;2.50;1.25;;;;;;;;4979955;28;62063;-81
2023/03/16 10:34:59;;;;;;;;;0.00;0.00;;;;;;;;4979228;28;62940;-81
2023/03/16 10:37:27;;;;;;;;;3.75;1.00;;;;;;;;4963406;28;61812;-81
2023/03/16 10:39:53;;;;;;;;;1.50;1.50;;;;;;;;4963715;28;62339;-82
2023/03/16 10:42:20;;;;;;;;;5.25;1.25;;;;;;;;4963731;28;61982;-81
2023/03/16 10:44:45;;;;;;;;;2.75;2.75;;;;;;;;4978897;28;62664;-81
2023/03/16 10:47:16;;;;;;;;;2.00;2.00;;;;;;;;4962562;28;62543;-81
2023/03/16 10:49:46;;;;;;;;;3.00;1.25;;;;;;;;4980067;28;61834;-81
2023/03/16 10:52:18;;;;;;;;;4.33;1.33;;;;;;;;4981160;28;62071;-82
2023/03/16 10:54:49;;;;;;;;;5.50;2.00;;;;;;;;4982306;28;62012;-81
2023/03/16 10:57:30;;;;;;;;;1.50;1.25;;;;;;;;5013319;28;61893;-81
2023/03/16 10:59:58;;;;;;;;;5.00;2.00;;;;;;;;5046910;28;61961;-82
2023/03/16 11:02:30;;;;;;;;;2.00;1.25;;;;;;;;5047501;28;61995;-81
2023/03/16 11:04:56;;;;;;;;;1.00;1.00;;;;;;;;5064669;28;61954;-81
2023/03/16 11:07:23;;;;;;;;;5.75;1.25;;;;;;;;5065034;28;61879;-81
2023/03/16 11:09:50;;;;;;;;;2.00;2.00;;;;;;;;5065288;28;61944;-81
2023/03/16 11:12:22;;;;;;;;;3.00;3.00;;;;;;;;5047289;28;61866;-81
2023/03/16 11:14:48;;;;;;;;;3.25;2.00;;;;;;;;5064443;28;61849;-81
2023/03/16 11:17:16;;;;;;;;;1.00;1.00;;;;;;;;5065008;28;61879;-82
2023/03/16 11:20:13;;;;;;;;;2.00;2.00;;;;;;;;5047210;28;61863;-81
2023/03/16 11:22:40;;;;;;;;;4.25;3.00;;;;;;;;5034985;28;62173;-81
2023/03/16 11:25:14;;;;;;;;;7.25;2.00;;;;;;;;5046800;28;64004;-81
2023/03/16 11:27:39;;;;;;;;;3.00;2.00;;;;;;;;5046732;28;61926;-81
2023/03/16 11:30:18;;;;;;;;;1.00;1.00;;;;;;;;5046119;28;62037;-82
2023/03/16 11:32:52;;;;;;;;;3.75;2.25;;;;;;;;5065294;28;61641;-82
2023/03/16 11:35:19;;;;;;;;;3.00;1.00;;;;;;;;5046494;28;64092;-82
2023/03/16 11:37:45;;;;;;;;;5.75;2.00;;;;;;;;5046303;28;61924;-81
2023/03/16 11:40:15;;;;;;;;;3.25;3.00;;;;;;;;5065013;28;62161;-83
2023/03/16 11:42:43;;;;;;;;;4.75;4.75;;;;;;;;5064912;28;61790;-81
2023/03/16 11:45:19;;;;;;;;;1.75;1.75;;;;;;;;5046035;28;64868;-82
2023/03/16 11:47:53;;;;;;;;;3.00;3.00;;;;;;;;5046677;28;61901;-82
2023/03/16 11:50:24;;;;;;;;;3.00;1.00;;;;;;;;5046762;28;62034;-82
2023/03/16 11:52:56;;;;;;;;;1.25;1.25;;;;;;;;5055336;28;61768;-82
2023/03/16 11:55:22;;;;;;;;;4.00;2.25;;;;;;;;5066432;28;63807;-82
2023/03/16 11:58:00;;;;;;;;;1.00;1.00;;;;;;;;5084796;27;61921;-82
2023/03/16 12:00:27;;;;;;;;;1.00;1.00;;;;;;;;5066412;28;61973;-82
2023/03/16 12:02:54;;;;;;;;;4.25;2.00;;;;;;;;5065465;28;61739;-82
2023/03/16 12:05:46;;;;;;;;;4.00;2.00;;;;;;;;5065721;28;63715;-82
2023/03/16 12:08:21;;;;;;;;;1.00;1.00;;;;;;;;5081076;28;62122;-82
2023/03/16 12:10:50;;;;;;;;;3.00;2.75;;;;;;;;5066610;28;61794;-82
2023/03/16 12:13:29;;;;;;;;;2.25;2.00;;;;;;;;5066742;28;61782;-82
2023/03/16 12:16:48;;;;;;;;;3.25;2.00;;;;;;;;5065652;28;64162;-81
2023/03/16 12:19:34;;;;;;;;;0.75;0.75;;;;;;;;5001975;28;62347;-82
2023/03/16 12:22:18;;;;;;;;;4.00;1.25;;;;;;;;4981542;28;62171;-82
2023/03/16 12:24:45;;;;;;;;;1.00;1.00;;;;;;;;4982022;28;61862;-82
2023/03/16 12:27:14;;;;;;;;;1.75;1.75;;;;;;;;4964996;28;63371;-82
2023/03/16 12:29:49;;;;;;;;;2.75;1.00;;;;;;;;4981423;28;61871;-82
2023/03/16 12:32:24;;;;;;;;;1.00;1.00;;;;;;;;4982242;28;61924;-82
2023/03/16 12:34:49;;;;;;;;;0.75;0.00;;;;;;;;4981630;28;61832;-82
2023/03/16 12:37:15;;;;;;;;;2.00;2.00;;;;;;;;4981017;28;64350;-82
2023/03/16 12:39:50;;;;;;;;;2.25;2.00;;;;;;;;4981888;28;61896;-82
2023/03/16 12:42:19;;;;;;;;;3.00;1.00;;;;;;;;4982228;28;61817;-82
2023/03/16 12:44:56;;;;;;;;;3.00;1.00;;;;;;;;4981755;28;62142;-82
2023/03/16 12:47:30;;;;;;;;;1.00;1.00;;;;;;;;4964720;28;63726;-82
2023/03/16 12:50:02;;;;;;;;;1.00;1.00;;;;;;;;4981766;28;61976;-82
2023/03/16 12:52:37;;;;;;;;;1.00;1.00;;;;;;;;4973978;28;61996;-82
2023/03/16 12:55:12;;;;;;;;;1.00;1.00;;;;;;;;4985155;28;62532;-82
2023/03/16 12:57:39;;;;;;;;;2.00;1.00;;;;;;;;5000663;28;62284;-82
2023/03/16 13:00:08;;;;;;;;;1.25;1.25;;;;;;;;5038480;28;62051;-82
2023/03/16 13:02:35;;;;;;;;;0.67;0.67;;;;;;;;5045945;28;62043;-82
2023/03/16 13:05:01;;;;;;;;;1.67;0.67;;;;;;;;5045332;28;61929;-82
2023/03/16 13:07:29;;;;;;;;;2.00;1.00;;;;;;;;5062799;28;63008;-82
2023/03/16 13:09:57;;;;;;;;;2.00;2.00;;;;;;;;5045591;28;61804;-83
2023/03/16 13:12:26;;;;;;;;;2.00;0.67;;;;;;;;5063800;28;61954;-82
2023/03/16 13:14:53;;;;;;;;;0.33;0.33;;;;;;;;5061736;28;61930;-83
2023/03/16 13:17:19;;;;;;;;;2.00;1.00;;;;;;;;5044952;28;63747;-83
2023/03/16 13:19:46;;;;;;;;;0.67;0.67;;;;;;;;5063189;28;61701;-83
2023/03/16 13:22:24;;;;;;;;;0.00;0.00;;;;;;;;5045255;28;62171;-83
2023/03/16 13:24:50;;;;;;;;;3.00;1.00;;;;;;;;5045661;28;62006;-83
2023/03/16 13:27:27;;;;;;;;;0.67;0.67;;;;;;;;5061560;28;64044;-83
2023/03/16 13:29:57;;;;;;;;;0.00;0.00;;;;;;;;5062739;28;61873;-82
2023/03/16 13:32:23;;;;;;;;;0.00;0.00;;;;;;;;5045230;28;61911;-83
2023/03/16 13:34:50;;;;;;;;;0.33;0.33;;;;;;;;5044949;28;61844;-83
2023/03/16 13:37:17;;;;;;;;;1.33;1.33;;;;;;;;5044914;28;64306;-83
2023/03/16 13:39:50;;;;;;;;;0.00;0.00;;;;;;;;5062043;28;61740;-82
2023/03/16 13:42:19;;;;;;;;;0.00;0.00;;;;;;;;5070553;28;61953;-83
2023/03/16 13:44:45;;;;;;;;;1.67;0.00;;;;;;;;5082617;27;61941;-83
2023/03/16 13:47:14;;;;;;;;;0.67;0.67;;;;;;;;5082453;27;61960;-82
2023/03/16 13:49:43;;;;;;;;;0.33;0.33;;;;;;;;5083499;28;61872;-82
2023/03/16 13:52:18;;;;;;;;;2.67;1.00;;;;;;;;5064506;27;61726;-82
2023/03/16 13:54:43;;;;;;;;;1.00;1.00;;;;;;;;5074957;28;62007;-83
2023/03/16 13:57:10;;;;;;;;;4.00;2.67;;;;;;;;5081645;28;62057;-82
2023/03/16 13:59:36;;;;;;;;;1.00;1.00;;;;;;;;5082694;27;61991;-83
2023/03/16 14:02:02;;;;;;;;;0.33;0.33;;;;;;;;5081176;28;61903;-83
2023/03/16 14:04:29;;;;;;;;;4.00;0.33;;;;;;;;5065134;28;61806;-83
2023/03/16 14:06:59;;;;;;;;;1.00;1.00;;;;;;;;5064695;28;64222;-83
2023/03/16 14:09:30;;;;;;;;;0.67;0.67;;;;;;;;5064734;28;61825;-82
2023/03/16 14:11:56;;;;;;;;;0.67;0.33;;;;;;;;5065089;28;62152;-83
2023/03/16 14:14:51;;;;;;;;;4.00;0.67;;;;;;;;5064600;28;62055;-82
2023/03/16 14:17:18;;;;;;;;;1.00;1.00;;;;;;;;5050858;28;64096;-82
2023/03/16 14:19:44;;;;;;;;;2.00;2.00;;;;;;;;5083378;28;61866;-82
2023/03/16 14:22:14;;;;;;;;;4.67;2.00;;;;;;;;5064747;28;61896;-83
2023/03/16 14:24:40;;;;;;;;;1.00;1.00;;;;;;;;5064623;28;62427;-83
2023/03/16 14:27:16;;;;;;;;;4.33;2.00;;;;;;;;5063808;28;64667;-83
2023/03/16 14:29:42;;;;;;;;;2.33;0.67;;;;;;;;5064267;28;62064;-82
2023/03/16 14:32:19;;;;;;;;;2.00;2.00;;;;;;;;5083150;28;61975;-82
2023/03/16 14:34:47;;;;;;;;;1.67;1.67;;;;;;;;5083593;27;62091;-83
2023/03/16 14:37:14;;;;;;;;;1.67;1.00;;;;;;;;5064810;28;65068;-83
2023/03/16 14:39:40;;;;;;;;;2.67;1.33;;;;;;;;5065060;28;61819;-82
2023/03/16 14:42:19;;;;;;;;;1.00;1.00;;;;;;;;5064381;28;62052;-82
2023/03/16 14:44:45;;;;;;;;;2.67;1.67;;;;;;;;5064606;28;62301;-83
2023/03/16 14:47:16;;;;;;;;;1.67;1.67;;;;;;;;5063655;28;63863;-83